Terminal Aerodrome Forecast
Issued by NWS Caribou, ME

Home | Current Version | Previous Version | Text Only | Print | Product List | Glossary On
Versions: 1 2 3 4 5 6 7 8 9 10 11 12 13 14 15 16 17 18 19
066
FTUS41 KCAR 082329
TAFBGR
TAF
KBGR 082329Z 0900/0924 01015G28KT 1 1/2SM -SN BLSN OVC015
     FM090600 36012G20KT 3/4SM -SN OVC012
     FM091400 02010KT 3SM -SN OVC015
     FM091600 02010KT P6SM OVC015=

USA.gov is the U.S. government's official web portal to all federal, state and local government web resources and services.